createdAt,value
2022-09-06T00:01:58.644Z,21.74
2022-09-06T00:06:00.415Z,22.03
2022-09-06T00:10:01.056Z,22.09
2022-09-06T00:14:00.618Z,21.96
2022-09-06T00:18:02.783Z,21.93
2022-09-06T00:22:04.196Z,21.86
2022-09-06T00:26:05.729Z,21.75
2022-09-06T00:30:06.520Z,21.53
2022-09-06T00:34:06.148Z,21.10
2022-09-06T00:38:07.802Z,20.81
2022-09-06T00:42:10.234Z,20.68
2022-09-06T00:46:12.531Z,20.68
2022-09-06T00:50:17.418Z,20.68
2022-09-06T00:54:19.179Z,20.68
2022-09-06T00:58:18.797Z,20.60
2022-09-06T01:02:19.788Z,20.64
2022-09-06T01:06:26.477Z,20.73
2022-09-06T01:10:57.378Z,20.97
2022-09-06T01:15:09.718Z,21.15
2022-09-06T01:20:09.099Z,21.34
2022-09-06T01:24:55.101Z,21.42
2022-09-06T01:28:57.286Z,21.43
2022-09-06T01:33:02.299Z,21.59
2022-09-06T01:37:10.281Z,21.62
2022-09-06T01:41:10.884Z,21.71
2022-09-06T01:45:16.898Z,21.74
2022-09-06T01:49:29.972Z,21.64
2022-09-06T01:53:48.234Z,21.54
2022-09-06T01:57:59.348Z,21.39
2022-09-06T02:02:07.702Z,21.05
2022-09-06T02:06:11.805Z,20.69
2022-09-06T02:10:18.392Z,20.59
2022-09-06T02:14:22.698Z,20.68
2022-09-06T02:18:31.754Z,20.69
2022-09-06T02:22:35.574Z,20.83
2022-09-06T02:26:39.350Z,20.64
2022-09-06T02:30:44.542Z,20.67
2022-09-06T02:34:47.475Z,20.76
2022-09-06T02:38:48.241Z,21.10
2022-09-06T02:42:47.943Z,21.16
2022-09-06T02:46:47.251Z,21.22
2022-09-06T02:50:49.129Z,21.61
2022-09-06T02:54:48.817Z,21.60
2022-09-06T02:58:49.594Z,21.95
2022-09-06T03:02:49.387Z,21.68
2022-09-06T03:06:51.297Z,21.39
2022-09-06T03:10:51.706Z,20.96
2022-09-06T03:14:54.820Z,20.84
2022-09-06T03:18:54.886Z,20.55
2022-09-06T03:22:56.705Z,20.21
2022-09-06T03:26:56.443Z,20.06
2022-09-06T03:30:56.354Z,19.82
2022-09-06T03:34:55.646Z,19.71
2022-09-06T03:38:57.967Z,19.54
2022-09-06T03:42:57.734Z,19.60
2022-09-06T03:46:58.439Z,19.59
2022-09-06T03:50:59.764Z,19.52
2022-09-06T03:55:02.545Z,19.50
2022-09-06T03:59:02.388Z,19.69
2022-09-06T04:03:02.093Z,19.97
2022-09-06T04:07:01.845Z,20.22
2022-09-06T04:11:03.921Z,20.38
2022-09-06T04:15:03.896Z,20.29
2022-09-06T04:19:03.970Z,20.05
2022-09-06T04:23:03.798Z,20.08
2022-09-06T04:27:06.027Z,19.94
2022-09-06T04:31:06.796Z,19.88
2022-09-06T04:35:07.318Z,19.64
2022-09-06T04:39:06.986Z,19.78
2022-09-06T04:43:08.850Z,19.72
2022-09-06T04:47:14.319Z,19.60
2022-09-06T04:51:13.984Z,19.63
2022-09-06T04:55:13.563Z,19.59
2022-09-06T04:59:15.325Z,19.71
2022-09-06T05:03:14.911Z,19.91
2022-09-06T05:07:15.278Z,20.35
2022-09-06T05:11:15.108Z,20.68
2022-09-06T05:15:17.147Z,20.90
2022-09-06T05:19:16.849Z,20.90
2022-09-06T05:23:16.501Z,21.00
2022-09-06T05:27:16.205Z,20.91
2022-09-06T05:31:28.304Z,20.93
2022-09-06T05:35:28.087Z,20.51
2022-09-06T05:39:27.924Z,20.61
2022-09-06T05:43:27.658Z,20.82
2022-09-06T05:47:30.879Z,20.92
2022-09-06T05:51:30.835Z,21.06
2022-09-06T05:55:30.387Z,21.54
2022-09-06T05:59:30.282Z,21.88
2022-09-06T06:03:32.059Z,21.74
2022-09-06T06:07:31.718Z,21.64
2022-09-06T06:11:33.503Z,21.55
2022-09-06T06:15:33.442Z,21.25
2022-09-06T06:19:35.276Z,20.90
2022-09-06T06:23:37.560Z,20.83
2022-09-06T06:27:37.498Z,20.98
2022-09-06T06:31:39.884Z,21.01
2022-09-06T06:35:41.810Z,20.67
2022-09-06T06:39:41.838Z,20.81
2022-09-06T06:43:41.291Z,20.78
2022-09-06T06:47:41.393Z,20.70
2022-09-06T06:51:43.238Z,20.86
2022-09-06T06:55:47.138Z,20.82
2022-09-06T06:59:46.990Z,21.02
2022-09-06T07:03:46.858Z,21.66
2022-09-06T07:07:48.563Z,22.00
2022-09-06T07:11:49.201Z,22.09
2022-09-06T07:15:49.153Z,22.43
2022-09-06T07:24:15.793Z,23.26
2022-09-06T07:28:23.703Z,23.33
2022-09-06T07:32:38.899Z,23.70
2022-09-06T07:36:39.092Z,23.71
2022-09-06T07:40:58.678Z,23.78
2022-09-06T07:45:27.130Z,23.86
2022-09-06T07:54:35.863Z,24.52
2022-09-06T07:58:43.878Z,24.38
2022-09-06T08:02:43.631Z,24.51
2022-09-06T08:11:45.109Z,23.90
2022-09-06T08:15:47.552Z,23.82
2022-09-06T08:19:47.984Z,24.12
2022-09-06T08:23:54.524Z,24.58
2022-09-06T08:27:58.483Z,24.65
2022-09-06T08:32:07.137Z,24.71
2022-09-06T08:36:10.732Z,24.35
2022-09-06T08:40:23.561Z,24.57
2022-09-06T08:49:12.600Z,24.81
2022-09-06T08:53:20.683Z,24.53
2022-09-06T08:58:33.080Z,25.07
2022-09-06T09:02:46.991Z,24.29
2022-09-06T09:06:52.275Z,24.87
2022-09-06T09:10:56.920Z,24.98
2022-09-06T09:15:42.141Z,25.10
2022-09-06T09:19:44.174Z,24.25
2022-09-06T09:24:09.768Z,24.46
2022-09-06T09:28:19.461Z,25.02
2022-09-06T09:32:31.540Z,24.71
2022-09-06T09:36:31.156Z,24.67
2022-09-06T09:40:55.141Z,25.24
2022-09-06T09:45:32.848Z,25.21
2022-09-06T09:49:37.434Z,25.26
2022-09-06T09:54:03.440Z,25.49
2022-09-06T09:58:09.623Z,25.52
2022-09-06T10:02:20.789Z,25.73
2022-09-06T10:10:52.332Z,25.51
2022-09-06T10:14:57.700Z,25.49
2022-09-06T10:18:57.174Z,25.53
2022-09-06T10:23:02.960Z,25.80
2022-09-06T10:27:03.728Z,26.25
2022-09-06T10:31:49.639Z,26.41
2022-09-06T10:35:49.127Z,25.91
2022-09-06T10:39:56.526Z,25.70
2022-09-06T10:44:07.144Z,25.85
2022-09-06T10:48:18.024Z,25.83
2022-09-06T10:52:21.771Z,25.78
2022-09-06T10:56:26.262Z,26.24
2022-09-06T11:00:26.832Z,26.64
2022-09-06T11:09:01.531Z,26.74
2022-09-06T11:13:05.459Z,27.05
2022-09-06T11:17:09.013Z,27.37
2022-09-06T11:21:43.872Z,26.86
2022-09-06T11:26:21.116Z,27.00
2022-09-06T11:30:22.574Z,27.22
2022-09-06T11:34:29.006Z,26.56
2022-09-06T11:38:31.078Z,26.99
2022-09-06T11:43:00.652Z,27.31
2022-09-06T11:47:02.051Z,27.04
2022-09-06T11:51:06.335Z,27.05
2022-09-06T11:55:13.492Z,27.27
2022-09-06T11:59:27.798Z,26.87
2022-09-06T12:08:37.583Z,26.60
2022-09-06T12:12:46.074Z,26.87
2022-09-06T12:17:25.627Z,27.36
2022-09-06T12:21:36.468Z,27.09
2022-09-06T12:25:57.566Z,26.94
2022-09-06T12:30:01.483Z,27.37
2022-09-06T12:34:07.601Z,27.71
2022-09-06T12:38:09.049Z,27.66
2022-09-06T12:42:14.715Z,27.64
2022-09-06T12:46:16.525Z,27.55
2022-09-06T12:50:19.460Z,27.60
2022-09-06T12:54:24.635Z,27.83
2022-09-06T12:58:30.281Z,28.23
2022-09-06T13:02:43.194Z,28.55
2022-09-06T13:06:46.410Z,28.75
2022-09-06T13:10:48.933Z,28.73
2022-09-06T13:14:48.221Z,28.63
2022-09-06T13:18:50.112Z,28.76
2022-09-06T13:22:51.733Z,28.69
2022-09-06T13:26:51.988Z,28.71
2022-09-06T13:31:05.865Z,28.40
2022-09-06T13:35:09.815Z,28.42
2022-09-06T13:39:31.100Z,28.52
2022-09-06T13:43:33.041Z,28.76
2022-09-06T13:47:33.910Z,28.85
2022-09-06T13:51:36.399Z,28.90
2022-09-06T13:55:36.335Z,28.77
2022-09-06T13:59:35.889Z,28.56
2022-09-06T14:03:35.985Z,28.22
2022-09-06T14:07:37.949Z,28.22
2022-09-06T14:11:37.678Z,27.87
2022-09-06T14:15:36.879Z,28.10
2022-09-06T14:19:36.570Z,28.14
2022-09-06T14:23:38.387Z,28.35
2022-09-06T14:27:37.999Z,28.58
2022-09-06T14:31:38.570Z,28.77
2022-09-06T14:35:38.114Z,28.40
2022-09-06T14:39:52.557Z,28.27
2022-09-06T14:44:11.393Z,28.43
2022-09-06T14:48:10.989Z,28.61
2022-09-06T14:52:10.601Z,28.37
2022-09-06T14:56:13.799Z,27.96
2022-09-06T15:00:15.180Z,27.96
2022-09-06T15:04:14.756Z,27.84
2022-09-06T15:08:14.701Z,27.63
2022-09-06T15:12:16.707Z,27.34
2022-09-06T15:16:16.674Z,27.29
2022-09-06T15:20:19.703Z,27.12
2022-09-06T15:24:19.645Z,27.32
2022-09-06T15:28:22.196Z,27.49
2022-09-06T15:32:22.263Z,27.51
2022-09-06T15:36:22.367Z,27.64
2022-09-06T15:40:24.049Z,27.60
2022-09-06T15:44:26.037Z,27.83
2022-09-06T15:48:26.257Z,27.97
2022-09-06T15:52:25.898Z,27.82
2022-09-06T15:56:25.561Z,28.17
2022-09-06T16:00:28.652Z,28.47
2022-09-06T16:04:28.325Z,28.00
2022-09-06T16:08:28.333Z,27.72
2022-09-06T16:12:28.184Z,27.58
2022-09-06T16:16:33.097Z,27.58
2022-09-06T16:20:33.534Z,27.69
2022-09-06T16:24:33.450Z,27.63
2022-09-06T16:28:36.482Z,27.70
2022-09-06T16:32:38.420Z,27.89
2022-09-06T16:36:38.343Z,28.04
2022-09-06T16:40:38.682Z,27.93
2022-09-06T16:44:38.635Z,27.77
2022-09-06T16:48:43.266Z,27.61
2022-09-06T16:52:43.036Z,27.59
2022-09-06T16:56:42.893Z,27.46
2022-09-06T17:00:50.177Z,27.24
2022-09-06T17:04:53.577Z,26.86
2022-09-06T17:08:54.148Z,26.41
2022-09-06T17:12:55.763Z,26.04
2022-09-06T17:17:10.516Z,25.66
2022-09-06T17:21:12.938Z,25.36
2022-09-06T17:25:14.401Z,25.03
2022-09-06T17:29:14.080Z,24.78
2022-09-06T17:33:16.683Z,24.44
2022-09-06T17:37:18.609Z,24.30
2022-09-06T17:41:23.820Z,24.04
2022-09-06T17:45:24.996Z,23.99
2022-09-06T17:49:29.893Z,23.79
2022-09-06T17:53:34.137Z,23.60
2022-09-06T17:57:34.151Z,23.53
2022-09-06T18:01:35.992Z,23.48
2022-09-06T18:05:39.377Z,23.38
2022-09-06T18:09:41.594Z,23.31
2022-09-06T18:13:42.814Z,23.25
2022-09-06T18:17:44.039Z,23.13
2022-09-06T18:21:44.089Z,23.06
2022-09-06T18:25:46.061Z,23.04
2022-09-06T18:29:45.904Z,22.98
2022-09-06T18:33:45.891Z,22.92
2022-09-06T18:37:45.623Z,22.65
2022-09-06T18:42:06.569Z,22.85
2022-09-06T18:46:08.791Z,22.56
2022-09-06T18:50:09.611Z,22.75
2022-09-06T18:54:09.496Z,22.68
2022-09-06T18:58:12.523Z,22.59
2022-09-06T19:02:12.742Z,22.36
2022-09-06T19:06:13.782Z,22.16
2022-09-06T19:10:13.526Z,21.94
2022-09-06T19:14:15.680Z,21.77
2022-09-06T19:18:15.612Z,21.68
2022-09-06T19:22:15.439Z,21.74
2022-09-06T19:26:17.592Z,21.89
2022-09-06T19:30:19.779Z,22.40
2022-09-06T19:34:19.561Z,22.58
2022-09-06T19:38:18.881Z,22.37
2022-09-06T19:42:18.739Z,22.40
2022-09-06T19:46:22.091Z,22.23
2022-09-06T19:50:22.015Z,21.76
2022-09-06T19:54:22.218Z,21.30
2022-09-06T19:58:22.306Z,20.98
2022-09-06T20:02:24.985Z,20.97
2022-09-06T20:06:25.484Z,20.65
2022-09-06T20:10:25.454Z,20.40
2022-09-06T20:14:28.819Z,20.25
2022-09-06T20:18:37.942Z,20.07
2022-09-06T20:22:52.260Z,20.16
2022-09-06T20:27:01.403Z,20.04
2022-09-06T20:31:07.632Z,19.93
2022-09-06T20:35:17.601Z,19.76
2022-09-06T20:39:22.195Z,19.62
2022-09-06T20:43:21.498Z,19.44
2022-09-06T20:47:24.488Z,19.24
2022-09-06T20:51:40.191Z,19.04
2022-09-06T20:55:47.394Z,19.13
2022-09-06T21:00:00.193Z,19.17
2022-09-06T21:04:14.011Z,19.14
2022-09-06T21:08:21.476Z,19.04
2022-09-06T21:12:41.350Z,18.93
2022-09-06T21:16:44.769Z,18.94
2022-09-06T21:21:37.690Z,18.96
2022-09-06T21:25:58.201Z,18.95
2022-09-06T21:31:08.188Z,18.78
2022-09-06T21:40:13.884Z,18.70
2022-09-06T21:44:17.230Z,18.66
2022-09-06T21:48:28.367Z,18.62
2022-09-06T21:52:40.420Z,18.44
2022-09-06T21:57:13.910Z,18.31
2022-09-06T22:01:23.366Z,18.43
2022-09-06T22:05:39.412Z,18.39
2022-09-06T22:10:03.287Z,18.40
2022-09-06T22:14:13.871Z,18.44
2022-09-06T22:18:23.208Z,18.21
2022-09-06T22:22:28.694Z,18.22
2022-09-06T22:26:30.342Z,18.17
2022-09-06T22:31:15.210Z,18.17
2022-09-06T22:35:22.923Z,18.15
2022-09-06T22:39:23.371Z,18.14
2022-09-06T22:43:33.995Z,18.07
2022-09-06T22:47:45.187Z,18.02
2022-09-06T22:52:03.803Z,18.11
2022-09-06T22:56:04.989Z,18.01
2022-09-06T23:00:09.381Z,17.96
2022-09-06T23:04:10.849Z,17.93
2022-09-06T23:08:21.917Z,17.94
2022-09-06T23:12:28.688Z,17.91
2022-09-06T23:16:38.195Z,17.81
2022-09-06T23:20:43.094Z,17.83
2022-09-06T23:24:46.067Z,17.75
2022-09-06T23:28:56.179Z,17.70
2022-09-06T23:32:56.272Z,17.69
2022-09-06T23:36:59.712Z,17.79
2022-09-06T23:41:01.800Z,17.66
2022-09-06T23:45:15.198Z,17.61
2022-09-06T23:49:18.490Z,17.69
2022-09-06T23:53:19.311Z,17.95
2022-09-06T23:57:21.350Z,17.92
